<?xml version="1.0" encoding="UTF-8" standalone="no" ?>
<gpx xmlns="http://www.topografix.com/GPX/1/1" xmlns:xsi="http://www.w3.org/2001/XMLSchema-instance" xsi:schemaLocation="http://www.topografix.com/GPX/1/1 http://www.topografix.com/GPX/1/1/gpx.xsd" version="1.1" creator="VisuGPX - https://www.visugpx.com">
  <metadata>
    <name>retour bibliotheque</name>
    <desc><![CDATA[[img][/img]]]></desc>
  </metadata>
  <trk>
    <name><![CDATA[retour bibliothèque]]></name>
    <trkseg>
      <trkpt lat="45.18787" lon="0.72477">
        <ele>118.487366</ele>
        <time>2013-01-17T16:31:17Z</time>
      </trkpt>
      <trkpt lat="45.18781" lon="0.72479">
        <ele>118.035767</ele>
        <time>2013-01-17T16:31:19Z</time>
      </trkpt>
      <trkpt lat="45.18776" lon="0.72482">
        <ele>117.748169</ele>
        <time>2013-01-17T16:31:23Z</time>
      </trkpt>
      <trkpt lat="45.18771" lon="0.72486">
        <ele>117.398132</ele>
        <time>2013-01-17T16:31:27Z</time>
      </trkpt>
      <trkpt lat="45.18766" lon="0.72491">
        <ele>117.045837</ele>
        <time>2013-01-17T16:31:30Z</time>
      </trkpt>
      <trkpt lat="45.1876" lon="0.72496">
        <ele>116.658264</ele>
        <time>2013-01-17T16:31:33Z</time>
      </trkpt>
      <trkpt lat="45.18755" lon="0.72501">
        <ele>116.2995</ele>
        <time>2013-01-17T16:31:35Z</time>
      </trkpt>
      <trkpt lat="45.18751" lon="0.72506">
        <ele>115.936279</ele>
        <time>2013-01-17T16:31:37Z</time>
      </trkpt>
      <trkpt lat="45.18747" lon="0.72512">
        <ele>115.503052</ele>
        <time>2013-01-17T16:31:41Z</time>
      </trkpt>
      <trkpt lat="45.18746" lon="0.72519">
        <ele>115.226807</ele>
        <time>2013-01-17T16:31:44Z</time>
      </trkpt>
      <trkpt lat="45.18745" lon="0.72528">
        <ele>114.970154</ele>
        <time>2013-01-17T16:31:47Z</time>
      </trkpt>
      <trkpt lat="45.18744" lon="0.72529">
        <ele>114.820068</ele>
        <time>2013-01-17T16:31:55Z</time>
      </trkpt>
      <trkpt lat="45.1874" lon="0.72528">
        <ele>114.505859</ele>
        <time>2013-01-17T16:32:01Z</time>
      </trkpt>
      <trkpt lat="45.18734" lon="0.7253">
        <ele>114.017029</ele>
        <time>2013-01-17T16:32:06Z</time>
      </trkpt>
      <trkpt lat="45.1873" lon="0.72531">
        <ele>113.644165</ele>
        <time>2013-01-17T16:32:09Z</time>
      </trkpt>
      <trkpt lat="45.18724" lon="0.72531">
        <ele>113.208191</ele>
        <time>2013-01-17T16:32:12Z</time>
      </trkpt>
      <trkpt lat="45.18719" lon="0.7253">
        <ele>112.824219</ele>
        <time>2013-01-17T16:32:17Z</time>
      </trkpt>
      <trkpt lat="45.18715" lon="0.72527">
        <ele>112.524963</ele>
        <time>2013-01-17T16:32:21Z</time>
      </trkpt>
      <trkpt lat="45.1871" lon="0.72522">
        <ele>112.236572</ele>
        <time>2013-01-17T16:32:26Z</time>
      </trkpt>
      <trkpt lat="45.18706" lon="0.7252">
        <ele>111.923279</ele>
        <time>2013-01-17T16:32:32Z</time>
      </trkpt>
      <trkpt lat="45.18701" lon="0.72519">
        <ele>111.587952</ele>
        <time>2013-01-17T16:32:38Z</time>
      </trkpt>
      <trkpt lat="45.18699" lon="0.72512">
        <ele>111.510925</ele>
        <time>2013-01-17T16:32:42Z</time>
      </trkpt>
      <trkpt lat="45.18696" lon="0.72506">
        <ele>111.332153</ele>
        <time>2013-01-17T16:32:45Z</time>
      </trkpt>
      <trkpt lat="45.18692" lon="0.72501">
        <ele>111.120178</ele>
        <time>2013-01-17T16:32:49Z</time>
      </trkpt>
      <trkpt lat="45.18688" lon="0.72495">
        <ele>110.703979</ele>
        <time>2013-01-17T16:32:53Z</time>
      </trkpt>
      <trkpt lat="45.18684" lon="0.72489">
        <ele>110.292236</ele>
        <time>2013-01-17T16:32:56Z</time>
      </trkpt>
      <trkpt lat="45.18679" lon="0.72484">
        <ele>109.821777</ele>
        <time>2013-01-17T16:32:59Z</time>
      </trkpt>
      <trkpt lat="45.18674" lon="0.72479">
        <ele>109.337585</ele>
        <time>2013-01-17T16:33:02Z</time>
      </trkpt>
      <trkpt lat="45.18669" lon="0.72476">
        <ele>108.885071</ele>
        <time>2013-01-17T16:33:05Z</time>
      </trkpt>
      <trkpt lat="45.18664" lon="0.72473">
        <ele>108.562683</ele>
        <time>2013-01-17T16:33:09Z</time>
      </trkpt>
      <trkpt lat="45.18658" lon="0.7247">
        <ele>108.342468</ele>
        <time>2013-01-17T16:33:13Z</time>
      </trkpt>
      <trkpt lat="45.18654" lon="0.72474">
        <ele>108.227539</ele>
        <time>2013-01-17T16:33:16Z</time>
      </trkpt>
      <trkpt lat="45.18652" lon="0.72482">
        <ele>108.180298</ele>
        <time>2013-01-17T16:33:19Z</time>
      </trkpt>
      <trkpt lat="45.18651" lon="0.7249">
        <ele>108.17749</ele>
        <time>2013-01-17T16:33:21Z</time>
      </trkpt>
      <trkpt lat="45.18649" lon="0.72499">
        <ele>108.168701</ele>
        <time>2013-01-17T16:33:24Z</time>
      </trkpt>
      <trkpt lat="45.18647" lon="0.72507">
        <ele>107.917358</ele>
        <time>2013-01-17T16:33:27Z</time>
      </trkpt>
      <trkpt lat="45.18646" lon="0.72514">
        <ele>107.659424</ele>
        <time>2013-01-17T16:33:30Z</time>
      </trkpt>
      <trkpt lat="45.18644" lon="0.72522">
        <ele>107.354248</ele>
        <time>2013-01-17T16:33:33Z</time>
      </trkpt>
      <trkpt lat="45.18641" lon="0.7253">
        <ele>106.953979</ele>
        <time>2013-01-17T16:33:36Z</time>
      </trkpt>
      <trkpt lat="45.18639" lon="0.72539">
        <ele>106.593323</ele>
        <time>2013-01-17T16:33:39Z</time>
      </trkpt>
      <trkpt lat="45.18638" lon="0.72545">
        <ele>106.314392</ele>
        <time>2013-01-17T16:33:43Z</time>
      </trkpt>
      <trkpt lat="45.18636" lon="0.7255">
        <ele>106.009399</ele>
        <time>2013-01-17T16:33:48Z</time>
      </trkpt>
      <trkpt lat="45.18633" lon="0.72556">
        <ele>105.670776</ele>
        <time>2013-01-17T16:33:54Z</time>
      </trkpt>
      <trkpt lat="45.18631" lon="0.72562">
        <ele>105.296753</ele>
        <time>2013-01-17T16:33:58Z</time>
      </trkpt>
      <trkpt lat="45.18629" lon="0.72568">
        <ele>104.865845</ele>
        <time>2013-01-17T16:34:01Z</time>
      </trkpt>
      <trkpt lat="45.18626" lon="0.72576">
        <ele>104.349243</ele>
        <time>2013-01-17T16:34:04Z</time>
      </trkpt>
      <trkpt lat="45.18625" lon="0.72582">
        <ele>104.036011</ele>
        <time>2013-01-17T16:34:08Z</time>
      </trkpt>
      <trkpt lat="45.18622" lon="0.72589">
        <ele>103.36377</ele>
        <time>2013-01-17T16:34:12Z</time>
      </trkpt>
      <trkpt lat="45.1862" lon="0.72597">
        <ele>102.715332</ele>
        <time>2013-01-17T16:34:16Z</time>
      </trkpt>
      <trkpt lat="45.18619" lon="0.72604">
        <ele>102.105835</ele>
        <time>2013-01-17T16:34:20Z</time>
      </trkpt>
      <trkpt lat="45.18617" lon="0.72611">
        <ele>101.501038</ele>
        <time>2013-01-17T16:34:25Z</time>
      </trkpt>
      <trkpt lat="45.18617" lon="0.72619">
        <ele>100.866577</ele>
        <time>2013-01-17T16:34:29Z</time>
      </trkpt>
      <trkpt lat="45.18615" lon="0.72626">
        <ele>100.281311</ele>
        <time>2013-01-17T16:34:32Z</time>
      </trkpt>
      <trkpt lat="45.18612" lon="0.72631">
        <ele>99.554932</ele>
        <time>2013-01-17T16:34:36Z</time>
      </trkpt>
      <trkpt lat="45.18607" lon="0.72629">
        <ele>99.055542</ele>
        <time>2013-01-17T16:34:39Z</time>
      </trkpt>
      <trkpt lat="45.18603" lon="0.72626">
        <ele>98.761536</ele>
        <time>2013-01-17T16:34:42Z</time>
      </trkpt>
      <trkpt lat="45.18598" lon="0.72622">
        <ele>98.471252</ele>
        <time>2013-01-17T16:34:46Z</time>
      </trkpt>
      <trkpt lat="45.18594" lon="0.72619">
        <ele>98.214233</ele>
        <time>2013-01-17T16:34:49Z</time>
      </trkpt>
      <trkpt lat="45.18591" lon="0.72613">
        <ele>98.342041</ele>
        <time>2013-01-17T16:34:53Z</time>
      </trkpt>
      <trkpt lat="45.18586" lon="0.72607">
        <ele>98.358643</ele>
        <time>2013-01-17T16:34:57Z</time>
      </trkpt>
      <trkpt lat="45.18582" lon="0.72602">
        <ele>98.371704</ele>
        <time>2013-01-17T16:35:00Z</time>
      </trkpt>
      <trkpt lat="45.18581" lon="0.726">
        <ele>98.433411</ele>
        <time>2013-01-17T16:35:05Z</time>
      </trkpt>
      <trkpt lat="45.18582" lon="0.72604">
        <ele>98.173401</ele>
        <time>2013-01-17T16:35:12Z</time>
      </trkpt>
      <trkpt lat="45.18578" lon="0.72605">
        <ele>97.793213</ele>
        <time>2013-01-17T16:35:18Z</time>
      </trkpt>
      <trkpt lat="45.18574" lon="0.72602">
        <ele>97.78125</ele>
        <time>2013-01-17T16:35:21Z</time>
      </trkpt>
      <trkpt lat="45.1857" lon="0.72596">
        <ele>97.911377</ele>
        <time>2013-01-17T16:35:24Z</time>
      </trkpt>
      <trkpt lat="45.18566" lon="0.72592">
        <ele>97.913574</ele>
        <time>2013-01-17T16:35:28Z</time>
      </trkpt>
      <trkpt lat="45.18562" lon="0.72589">
        <ele>97.783691</ele>
        <time>2013-01-17T16:35:31Z</time>
      </trkpt>
      <trkpt lat="45.18559" lon="0.72582">
        <ele>98.046509</ele>
        <time>2013-01-17T16:35:34Z</time>
      </trkpt>
      <trkpt lat="45.18556" lon="0.72576">
        <ele>98.263672</ele>
        <time>2013-01-17T16:35:36Z</time>
      </trkpt>
      <trkpt lat="45.18553" lon="0.72569">
        <ele>98.447205</ele>
        <time>2013-01-17T16:35:39Z</time>
      </trkpt>
      <trkpt lat="45.18551" lon="0.72562">
        <ele>98.746643</ele>
        <time>2013-01-17T16:35:44Z</time>
      </trkpt>
      <trkpt lat="45.18548" lon="0.72556">
        <ele>98.963623</ele>
        <time>2013-01-17T16:35:48Z</time>
      </trkpt>
      <trkpt lat="45.18543" lon="0.72555">
        <ele>98.634521</ele>
        <time>2013-01-17T16:35:53Z</time>
      </trkpt>
      <trkpt lat="45.18539" lon="0.72549">
        <ele>98.806396</ele>
        <time>2013-01-17T16:35:57Z</time>
      </trkpt>
      <trkpt lat="45.18537" lon="0.72542">
        <ele>99.142578</ele>
        <time>2013-01-17T16:36:01Z</time>
      </trkpt>
      <trkpt lat="45.18534" lon="0.72536">
        <ele>99.343689</ele>
        <time>2013-01-17T16:36:05Z</time>
      </trkpt>
      <trkpt lat="45.18532" lon="0.72529">
        <ele>99.761047</ele>
        <time>2013-01-17T16:36:08Z</time>
      </trkpt>
      <trkpt lat="45.18531" lon="0.72521">
        <ele>100.258606</ele>
        <time>2013-01-17T16:36:11Z</time>
      </trkpt>
      <trkpt lat="45.1853" lon="0.72513">
        <ele>100.777649</ele>
        <time>2013-01-17T16:36:14Z</time>
      </trkpt>
      <trkpt lat="45.1853" lon="0.72506">
        <ele>101.349915</ele>
        <time>2013-01-17T16:36:17Z</time>
      </trkpt>
      <trkpt lat="45.18531" lon="0.72499">
        <ele>101.937439</ele>
        <time>2013-01-17T16:36:20Z</time>
      </trkpt>
      <trkpt lat="45.18532" lon="0.72492">
        <ele>102.484619</ele>
        <time>2013-01-17T16:36:23Z</time>
      </trkpt>
      <trkpt lat="45.18533" lon="0.72485">
        <ele>103.090637</ele>
        <time>2013-01-17T16:36:26Z</time>
      </trkpt>
      <trkpt lat="45.18534" lon="0.72477">
        <ele>103.734802</ele>
        <time>2013-01-17T16:36:30Z</time>
      </trkpt>
      <trkpt lat="45.1853" lon="0.72474">
        <ele>103.793762</ele>
        <time>2013-01-17T16:36:33Z</time>
      </trkpt>
      <trkpt lat="45.18523" lon="0.72474">
        <ele>103.62384</ele>
        <time>2013-01-17T16:36:37Z</time>
      </trkpt>
      <trkpt lat="45.18518" lon="0.72476">
        <ele>103.246399</ele>
        <time>2013-01-17T16:36:39Z</time>
      </trkpt>
      <trkpt lat="45.18511" lon="0.72478">
        <ele>102.824768</ele>
        <time>2013-01-17T16:36:41Z</time>
      </trkpt>
      <trkpt lat="45.18504" lon="0.7248">
        <ele>102.307068</ele>
        <time>2013-01-17T16:36:43Z</time>
      </trkpt>
      <trkpt lat="45.185" lon="0.72482">
        <ele>101.884949</ele>
        <time>2013-01-17T16:36:45Z</time>
      </trkpt>
      <trkpt lat="45.18495" lon="0.72484">
        <ele>101.328613</ele>
        <time>2013-01-17T16:36:48Z</time>
      </trkpt>
      <trkpt lat="45.18491" lon="0.72486">
        <ele>100.714844</ele>
        <time>2013-01-17T16:36:51Z</time>
      </trkpt>
      <trkpt lat="45.18495" lon="0.72497">
        <ele>99.837891</ele>
        <time>2013-01-17T16:36:56Z</time>
      </trkpt>
      <trkpt lat="45.1849" lon="0.72499">
        <ele>99.247192</ele>
        <time>2013-01-17T16:37:00Z</time>
      </trkpt>
      <trkpt lat="45.18485" lon="0.72502">
        <ele>98.549255</ele>
        <time>2013-01-17T16:37:03Z</time>
      </trkpt>
      <trkpt lat="45.18482" lon="0.72503">
        <ele>98.229797</ele>
        <time>2013-01-17T16:37:17Z</time>
      </trkpt>
      <trkpt lat="45.18476" lon="0.72507">
        <ele>97.521118</ele>
        <time>2013-01-17T16:37:22Z</time>
      </trkpt>
      <trkpt lat="45.18473" lon="0.72512">
        <ele>96.922668</ele>
        <time>2013-01-17T16:37:25Z</time>
      </trkpt>
      <trkpt lat="45.18471" lon="0.72519">
        <ele>96.245422</ele>
        <time>2013-01-17T16:37:28Z</time>
      </trkpt>
      <trkpt lat="45.18469" lon="0.72526">
        <ele>95.672852</ele>
        <time>2013-01-17T16:37:31Z</time>
      </trkpt>
      <trkpt lat="45.18466" lon="0.72529">
        <ele>95.273804</ele>
        <time>2013-01-17T16:37:36Z</time>
      </trkpt>
      <trkpt lat="45.18462" lon="0.72524">
        <ele>95.318237</ele>
        <time>2013-01-17T16:37:39Z</time>
      </trkpt>
      <trkpt lat="45.18457" lon="0.7252">
        <ele>95.203552</ele>
        <time>2013-01-17T16:37:42Z</time>
      </trkpt>
      <trkpt lat="45.18452" lon="0.72518">
        <ele>94.993347</ele>
        <time>2013-01-17T16:37:44Z</time>
      </trkpt>
      <trkpt lat="45.18446" lon="0.72518">
        <ele>94.51886</ele>
        <time>2013-01-17T16:37:47Z</time>
      </trkpt>
      <trkpt lat="45.18442" lon="0.72516">
        <ele>94.296753</ele>
        <time>2013-01-17T16:37:50Z</time>
      </trkpt>
      <trkpt lat="45.18437" lon="0.72513">
        <ele>94.077026</ele>
        <time>2013-01-17T16:37:54Z</time>
      </trkpt>
      <trkpt lat="45.18432" lon="0.72513">
        <ele>93.704956</ele>
        <time>2013-01-17T16:37:57Z</time>
      </trkpt>
      <trkpt lat="45.18427" lon="0.72512">
        <ele>93.359009</ele>
        <time>2013-01-17T16:38:01Z</time>
      </trkpt>
      <trkpt lat="45.18425" lon="0.72506">
        <ele>93.465271</ele>
        <time>2013-01-17T16:38:05Z</time>
      </trkpt>
      <trkpt lat="45.18421" lon="0.72501">
        <ele>93.325684</ele>
        <time>2013-01-17T16:38:09Z</time>
      </trkpt>
      <trkpt lat="45.18417" lon="0.72495">
        <ele>93.564514</ele>
        <time>2013-01-17T16:38:13Z</time>
      </trkpt>
      <trkpt lat="45.18414" lon="0.7249">
        <ele>93.867126</ele>
        <time>2013-01-17T16:38:16Z</time>
      </trkpt>
      <trkpt lat="45.18411" lon="0.72484">
        <ele>94.23822</ele>
        <time>2013-01-17T16:38:19Z</time>
      </trkpt>
      <trkpt lat="45.18408" lon="0.72479">
        <ele>94.411133</ele>
        <time>2013-01-17T16:38:22Z</time>
      </trkpt>
      <trkpt lat="45.18404" lon="0.72476">
        <ele>94.488281</ele>
        <time>2013-01-17T16:38:26Z</time>
      </trkpt>
      <trkpt lat="45.18399" lon="0.72473">
        <ele>94.408508</ele>
        <time>2013-01-17T16:38:32Z</time>
      </trkpt>
      <trkpt lat="45.18394" lon="0.7247">
        <ele>94.343506</ele>
        <time>2013-01-17T16:38:35Z</time>
      </trkpt>
      <trkpt lat="45.1839" lon="0.72466">
        <ele>94.344971</ele>
        <time>2013-01-17T16:38:39Z</time>
      </trkpt>
      <trkpt lat="45.18386" lon="0.72462">
        <ele>94.342957</ele>
        <time>2013-01-17T16:38:44Z</time>
      </trkpt>
      <trkpt lat="45.18382" lon="0.72457">
        <ele>94.322449</ele>
        <time>2013-01-17T16:38:48Z</time>
      </trkpt>
      <trkpt lat="45.18378" lon="0.72454">
        <ele>94.261353</ele>
        <time>2013-01-17T16:38:52Z</time>
      </trkpt>
      <trkpt lat="45.18372" lon="0.72456">
        <ele>93.693481</ele>
        <time>2013-01-17T16:38:55Z</time>
      </trkpt>
      <trkpt lat="45.18367" lon="0.7246">
        <ele>92.992737</ele>
        <time>2013-01-17T16:38:58Z</time>
      </trkpt>
      <trkpt lat="45.18363" lon="0.72467">
        <ele>92.297607</ele>
        <time>2013-01-17T16:39:02Z</time>
      </trkpt>
      <trkpt lat="45.1836" lon="0.72475">
        <ele>91.690979</ele>
        <time>2013-01-17T16:39:05Z</time>
      </trkpt>
      <trkpt lat="45.18356" lon="0.72483">
        <ele>91.018311</ele>
        <time>2013-01-17T16:39:08Z</time>
      </trkpt>
      <trkpt lat="45.18352" lon="0.7249">
        <ele>90.409973</ele>
        <time>2013-01-17T16:39:11Z</time>
      </trkpt>
      <trkpt lat="45.18348" lon="0.72495">
        <ele>89.899597</ele>
        <time>2013-01-17T16:39:14Z</time>
      </trkpt>
      <trkpt lat="45.18345" lon="0.72502">
        <ele>89.570435</ele>
        <time>2013-01-17T16:39:18Z</time>
      </trkpt>
      <trkpt lat="45.18343" lon="0.72508">
        <ele>89.405701</ele>
        <time>2013-01-17T16:39:23Z</time>
      </trkpt>
      <trkpt lat="45.18341" lon="0.72511">
        <ele>89.313049</ele>
        <time>2013-01-17T16:39:28Z</time>
      </trkpt>
      <trkpt lat="45.1834" lon="0.72519">
        <ele>89.250793</ele>
        <time>2013-01-17T16:39:33Z</time>
      </trkpt>
      <trkpt lat="45.18337" lon="0.72527">
        <ele>89.140869</ele>
        <time>2013-01-17T16:39:36Z</time>
      </trkpt>
      <trkpt lat="45.18336" lon="0.72535">
        <ele>89.096069</ele>
        <time>2013-01-17T16:39:39Z</time>
      </trkpt>
      <trkpt lat="45.1834" lon="0.7254">
        <ele>89.202454</ele>
        <time>2013-01-17T16:39:42Z</time>
      </trkpt>
      <trkpt lat="45.18345" lon="0.72543">
        <ele>89.342468</ele>
        <time>2013-01-17T16:39:45Z</time>
      </trkpt>
      <trkpt lat="45.1835" lon="0.72546">
        <ele>89.457275</ele>
        <time>2013-01-17T16:39:48Z</time>
      </trkpt>
      <trkpt lat="45.18354" lon="0.72548">
        <ele>89.566772</ele>
        <time>2013-01-17T16:39:53Z</time>
      </trkpt>
      <trkpt lat="45.18359" lon="0.72551">
        <ele>89.653442</ele>
        <time>2013-01-17T16:39:56Z</time>
      </trkpt>
      <trkpt lat="45.18364" lon="0.72554">
        <ele>89.747681</ele>
        <time>2013-01-17T16:39:59Z</time>
      </trkpt>
      <trkpt lat="45.18368" lon="0.72557">
        <ele>89.800659</ele>
        <time>2013-01-17T16:40:02Z</time>
      </trkpt>
      <trkpt lat="45.18371" lon="0.72558">
        <ele>89.863831</ele>
        <time>2013-01-17T16:40:15Z</time>
      </trkpt>
      <trkpt lat="45.18376" lon="0.72563">
        <ele>89.902344</ele>
        <time>2013-01-17T16:40:19Z</time>
      </trkpt>
      <trkpt lat="45.1838" lon="0.72568">
        <ele>89.880554</ele>
        <time>2013-01-17T16:40:22Z</time>
      </trkpt>
      <trkpt lat="45.18384" lon="0.72572">
        <ele>89.858154</ele>
        <time>2013-01-17T16:40:25Z</time>
      </trkpt>
      <trkpt lat="45.18388" lon="0.72576">
        <ele>89.831665</ele>
        <time>2013-01-17T16:40:28Z</time>
      </trkpt>
      <trkpt lat="45.18394" lon="0.72579">
        <ele>89.84845</ele>
        <time>2013-01-17T16:40:31Z</time>
      </trkpt>
      <trkpt lat="45.18399" lon="0.72581">
        <ele>89.866699</ele>
        <time>2013-01-17T16:40:34Z</time>
      </trkpt>
      <trkpt lat="45.18404" lon="0.72582">
        <ele>89.885254</ele>
        <time>2013-01-17T16:40:37Z</time>
      </trkpt>
      <trkpt lat="45.18409" lon="0.72586">
        <ele>89.886597</ele>
        <time>2013-01-17T16:40:41Z</time>
      </trkpt>
      <trkpt lat="45.18414" lon="0.72591">
        <ele>89.881958</ele>
        <time>2013-01-17T16:40:44Z</time>
      </trkpt>
      <trkpt lat="45.18419" lon="0.72596">
        <ele>89.920715</ele>
        <time>2013-01-17T16:40:47Z</time>
      </trkpt>
      <trkpt lat="45.18424" lon="0.726">
        <ele>90.032898</ele>
        <time>2013-01-17T16:40:50Z</time>
      </trkpt>
      <trkpt lat="45.18428" lon="0.72603">
        <ele>90.099976</ele>
        <time>2013-01-17T16:40:52Z</time>
      </trkpt>
      <trkpt lat="45.18431" lon="0.72609">
        <ele>90.105164</ele>
        <time>2013-01-17T16:40:55Z</time>
      </trkpt>
      <trkpt lat="45.18434" lon="0.72615">
        <ele>90.087158</ele>
        <time>2013-01-17T16:40:59Z</time>
      </trkpt>
      <trkpt lat="45.18439" lon="0.72614">
        <ele>90.232666</ele>
        <time>2013-01-17T16:41:04Z</time>
      </trkpt>
      <trkpt lat="45.18441" lon="0.72613">
        <ele>90.310974</ele>
        <time>2013-01-17T16:41:10Z</time>
      </trkpt>
    </trkseg>
  </trk>
</gpx>